sensor_id;sensor_type;location;lat;lon;timestamp;P1;durP1;ratioP1;P2;durP2;ratioP2
35330;SDS011;21441;52.190;20.910;2023-02-04T00:01:59;18.23;;;12.55;;
35330;SDS011;21441;52.190;20.910;2023-02-04T00:04:26;17.05;;;11.85;;
35330;SDS011;21441;52.190;20.910;2023-02-04T00:06:54;21.88;;;15.27;;
35330;SDS011;21441;52.190;20.910;2023-02-04T00:09:21;20.47;;;13.90;;
35330;SDS011;21441;52.190;20.910;2023-02-04T00:11:49;18.35;;;12.95;;
35330;SDS011;21441;52.190;20.910;2023-02-04T00:14:16;19.00;;;12.65;;
35330;SDS011;21441;52.190;20.910;2023-02-04T00:16:45;17.67;;;11.13;;
35330;SDS011;21441;52.190;20.910;2023-02-04T00:19:12;17.00;;;12.00;;
35330;SDS011;21441;52.190;20.910;2023-02-04T00:21:41;16.95;;;12.63;;
35330;SDS011;21441;52.190;20.910;2023-02-04T00:24:08;17.30;;;12.95;;
35330;SDS011;21441;52.190;20.910;2023-02-04T00:26:36;18.25;;;12.98;;
35330;SDS011;21441;52.190;20.910;2023-02-04T00:29:03;18.17;;;12.30;;
35330;SDS011;21441;52.190;20.910;2023-02-04T00:31:30;16.00;;;11.63;;
35330;SDS011;21441;52.190;20.910;2023-02-04T00:33:59;17.40;;;12.52;;
35330;SDS011;21441;52.190;20.910;2023-02-04T00:36:26;17.20;;;11.40;;
35330;SDS011;21441;52.190;20.910;2023-02-04T00:38:54;16.10;;;11.13;;
35330;SDS011;21441;52.190;20.910;2023-02-04T00:41:21;20.00;;;13.75;;
35330;SDS011;21441;52.190;20.910;2023-02-04T00:43:48;16.67;;;11.65;;
35330;SDS011;21441;52.190;20.910;2023-02-04T00:46:16;18.08;;;12.07;;
35330;SDS011;21441;52.190;20.910;2023-02-04T00:48:43;16.15;;;11.65;;
35330;SDS011;21441;52.190;20.910;2023-02-04T00:51:12;17.38;;;12.23;;
35330;SDS011;21441;52.190;20.910;2023-02-04T00:53:39;15.52;;;11.00;;
35330;SDS011;21441;52.190;20.910;2023-02-04T00:56:07;15.68;;;11.05;;
35330;SDS011;21441;52.190;20.910;2023-02-04T00:58:34;15.15;;;11.50;;
35330;SDS011;21441;52.190;20.910;2023-02-04T01:01:02;14.73;;;11.27;;
35330;SDS011;21441;52.190;20.910;2023-02-04T01:03:29;16.30;;;11.20;;
35330;SDS011;21441;52.190;20.910;2023-02-04T01:05:57;15.27;;;11.05;;
35330;SDS011;21441;52.190;20.910;2023-02-04T01:08:25;14.82;;;11.10;;
35330;SDS011;21441;52.190;20.910;2023-02-04T01:10:53;15.15;;;11.00;;
35330;SDS011;21441;52.190;20.910;2023-02-04T01:13:20;15.52;;;10.60;;
35330;SDS011;21441;52.190;20.910;2023-02-04T01:15:47;15.10;;;10.98;;
35330;SDS011;21441;52.190;20.910;2023-02-04T01:18:15;16.23;;;11.10;;
35330;SDS011;21441;52.190;20.910;2023-02-04T01:20:42;13.43;;;9.77;;
35330;SDS011;21441;52.190;20.910;2023-02-04T01:23:10;13.95;;;9.82;;
35330;SDS011;21441;52.190;20.910;2023-02-04T01:25:38;13.67;;;10.20;;
35330;SDS011;21441;52.190;20.910;2023-02-04T01:28:06;12.20;;;8.88;;
35330;SDS011;21441;52.190;20.910;2023-02-04T01:30:34;14.02;;;10.07;;
35330;SDS011;21441;52.190;20.910;2023-02-04T01:33:01;12.13;;;9.13;;
35330;SDS011;21441;52.190;20.910;2023-02-04T01:35:29;13.23;;;9.65;;
35330;SDS011;21441;52.190;20.910;2023-02-04T01:37:56;13.57;;;9.60;;
35330;SDS011;21441;52.190;20.910;2023-02-04T01:40:23;15.57;;;9.93;;
35330;SDS011;21441;52.190;20.910;2023-02-04T01:42:52;11.88;;;9.00;;
35330;SDS011;21441;52.190;20.910;2023-02-04T01:45:20;11.52;;;9.52;;
35330;SDS011;21441;52.190;20.910;2023-02-04T01:47:47;13.38;;;9.45;;
35330;SDS011;21441;52.190;20.910;2023-02-04T01:50:15;12.80;;;9.75;;
35330;SDS011;21441;52.190;20.910;2023-02-04T01:52:43;15.17;;;9.67;;
35330;SDS011;21441;52.190;20.910;2023-02-04T01:55:12;12.88;;;9.98;;
35330;SDS011;21441;52.190;20.910;2023-02-04T01:57:41;15.05;;;10.02;;
35330;SDS011;21441;52.190;20.910;2023-02-04T02:00:11;13.68;;;10.02;;
35330;SDS011;21441;52.190;20.910;2023-02-04T02:02:42;13.27;;;9.68;;
35330;SDS011;21441;52.190;20.910;2023-02-04T02:05:12;11.90;;;9.13;;
35330;SDS011;21441;52.190;20.910;2023-02-04T02:07:45;13.55;;;10.05;;
35330;SDS011;21441;52.190;20.910;2023-02-04T02:10:13;11.68;;;8.90;;
35330;SDS011;21441;52.190;20.910;2023-02-04T02:12:42;10.90;;;8.90;;
35330;SDS011;21441;52.190;20.910;2023-02-04T02:15:13;12.05;;;9.15;;
35330;SDS011;21441;52.190;20.910;2023-02-04T02:17:41;12.05;;;8.75;;
35330;SDS011;21441;52.190;20.910;2023-02-04T02:20:10;12.38;;;8.95;;
35330;SDS011;21441;52.190;20.910;2023-02-04T02:22:41;11.40;;;8.55;;
35330;SDS011;21441;52.190;20.910;2023-02-04T02:25:18;11.83;;;8.73;;
35330;SDS011;21441;52.190;20.910;2023-02-04T02:27:46;11.15;;;8.77;;
35330;SDS011;21441;52.190;20.910;2023-02-04T02:30:14;10.95;;;8.23;;
35330;SDS011;21441;52.190;20.910;2023-02-04T02:32:42;8.95;;;7.68;;
35330;SDS011;21441;52.190;20.910;2023-02-04T02:35:11;11.30;;;8.18;;
35330;SDS011;21441;52.190;20.910;2023-02-04T02:37:39;13.35;;;9.00;;
35330;SDS011;21441;52.190;20.910;2023-02-04T02:40:07;12.77;;;8.77;;
35330;SDS011;21441;52.190;20.910;2023-02-04T02:42:37;11.73;;;7.82;;
35330;SDS011;21441;52.190;20.910;2023-02-04T02:45:06;11.00;;;7.50;;
35330;SDS011;21441;52.190;20.910;2023-02-04T02:47:38;11.52;;;8.25;;
35330;SDS011;21441;52.190;20.910;2023-02-04T02:50:06;9.23;;;7.75;;
35330;SDS011;21441;52.190;20.910;2023-02-04T02:52:37;10.18;;;7.80;;
35330;SDS011;21441;52.190;20.910;2023-02-04T02:55:06;10.30;;;7.70;;
35330;SDS011;21441;52.190;20.910;2023-02-04T02:57:41;11.10;;;7.78;;
35330;SDS011;21441;52.190;20.910;2023-02-04T03:00:13;9.73;;;7.45;;
35330;SDS011;21441;52.190;20.910;2023-02-04T03:02:42;12.37;;;7.83;;
35330;SDS011;21441;52.190;20.910;2023-02-04T03:05:11;10.13;;;7.28;;
35330;SDS011;21441;52.190;20.910;2023-02-04T03:07:39;9.82;;;7.15;;
35330;SDS011;21441;52.190;20.910;2023-02-04T03:10:06;10.32;;;7.38;;
35330;SDS011;21441;52.190;20.910;2023-02-04T03:12:34;8.93;;;7.30;;
35330;SDS011;21441;52.190;20.910;2023-02-04T03:15:03;9.18;;;7.07;;
35330;SDS011;21441;52.190;20.910;2023-02-04T03:17:31;11.00;;;7.93;;
35330;SDS011;21441;52.190;20.910;2023-02-04T03:20:00;8.68;;;7.18;;
35330;SDS011;21441;52.190;20.910;2023-02-04T03:22:28;10.80;;;7.68;;
35330;SDS011;21441;52.190;20.910;2023-02-04T03:24:57;10.60;;;7.55;;
35330;SDS011;21441;52.190;20.910;2023-02-04T03:27:24;8.90;;;7.57;;
35330;SDS011;21441;52.190;20.910;2023-02-04T03:29:51;10.95;;;7.38;;
35330;SDS011;21441;52.190;20.910;2023-02-04T03:32:20;10.73;;;7.38;;
35330;SDS011;21441;52.190;20.910;2023-02-04T03:34:48;10.50;;;7.87;;
35330;SDS011;21441;52.190;20.910;2023-02-04T03:37:15;11.75;;;7.82;;
35330;SDS011;21441;52.190;20.910;2023-02-04T03:39:43;11.75;;;7.35;;
35330;SDS011;21441;52.190;20.910;2023-02-04T03:42:10;9.48;;;6.97;;
35330;SDS011;21441;52.190;20.910;2023-02-04T03:44:38;9.85;;;7.30;;
35330;SDS011;21441;52.190;20.910;2023-02-04T03:47:05;9.52;;;6.72;;
35330;SDS011;21441;52.190;20.910;2023-02-04T03:49:34;11.85;;;7.88;;
35330;SDS011;21441;52.190;20.910;2023-02-04T03:52:01;11.77;;;8.27;;
35330;SDS011;21441;52.190;20.910;2023-02-04T03:54:29;12.68;;;8.38;;
35330;SDS011;21441;52.190;20.910;2023-02-04T03:56:57;11.20;;;8.65;;
35330;SDS011;21441;52.190;20.910;2023-02-04T03:59:24;12.82;;;8.70;;
35330;SDS011;21441;52.190;20.910;2023-02-04T04:01:52;12.13;;;9.03;;
35330;SDS011;21441;52.190;20.910;2023-02-04T04:04:19;14.13;;;9.15;;
35330;SDS011;21441;52.190;20.910;2023-02-04T04:06:48;12.07;;;8.23;;
35330;SDS011;21441;52.190;20.910;2023-02-04T04:09:15;9.95;;;7.80;;
35330;SDS011;21441;52.190;20.910;2023-02-04T04:11:43;13.30;;;8.32;;
35330;SDS011;21441;52.190;20.910;2023-02-04T04:14:10;9.18;;;6.63;;
35330;SDS011;21441;52.190;20.910;2023-02-04T04:16:38;9.63;;;6.45;;
35330;SDS011;21441;52.190;20.910;2023-02-04T04:19:05;9.23;;;6.57;;
35330;SDS011;21441;52.190;20.910;2023-02-04T04:21:33;8.27;;;6.28;;
35330;SDS011;21441;52.190;20.910;2023-02-04T04:24:02;10.73;;;7.13;;
35330;SDS011;21441;52.190;20.910;2023-02-04T04:26:29;10.25;;;6.32;;
35330;SDS011;21441;52.190;20.910;2023-02-04T04:28:57;10.93;;;6.85;;
35330;SDS011;21441;52.190;20.910;2023-02-04T04:31:24;8.97;;;6.37;;
35330;SDS011;21441;52.190;20.910;2023-02-04T04:33:51;10.43;;;6.45;;
35330;SDS011;21441;52.190;20.910;2023-02-04T04:36:19;9.05;;;6.40;;
35330;SDS011;21441;52.190;20.910;2023-02-04T04:38:46;8.55;;;6.50;;
35330;SDS011;21441;52.190;20.910;2023-02-04T04:41:15;8.87;;;5.97;;
35330;SDS011;21441;52.190;20.910;2023-02-04T04:43:42;9.32;;;6.90;;
35330;SDS011;21441;52.190;20.910;2023-02-04T04:46:10;9.43;;;7.13;;
35330;SDS011;21441;52.190;20.910;2023-02-04T04:48:37;9.20;;;6.50;;
35330;SDS011;21441;52.190;20.910;2023-02-04T04:51:05;8.38;;;6.25;;
35330;SDS011;21441;52.190;20.910;2023-02-04T04:53:32;11.75;;;6.70;;
35330;SDS011;21441;52.190;20.910;2023-02-04T04:55:59;10.05;;;6.82;;
35330;SDS011;21441;52.190;20.910;2023-02-04T04:58:28;9.70;;;7.20;;
35330;SDS011;21441;52.190;20.910;2023-02-04T05:00:56;9.60;;;7.07;;
35330;SDS011;21441;52.190;20.910;2023-02-04T05:03:23;10.55;;;6.63;;
35330;SDS011;21441;52.190;20.910;2023-02-04T05:05:50;8.73;;;6.60;;
35330;SDS011;21441;52.190;20.910;2023-02-04T05:08:18;11.30;;;7.22;;
35330;SDS011;21441;52.190;20.910;2023-02-04T05:10:45;9.30;;;6.30;;
35330;SDS011;21441;52.190;20.910;2023-02-04T05:13:13;9.88;;;7.40;;
35330;SDS011;21441;52.190;20.910;2023-02-04T05:15:42;10.52;;;7.22;;
35330;SDS011;21441;52.190;20.910;2023-02-04T05:18:09;10.23;;;7.20;;
35330;SDS011;21441;52.190;20.910;2023-02-04T05:20:36;10.13;;;6.90;;
35330;SDS011;21441;52.190;20.910;2023-02-04T05:23:04;11.47;;;7.23;;
35330;SDS011;21441;52.190;20.910;2023-02-04T05:25:31;10.20;;;7.15;;
35330;SDS011;21441;52.190;20.910;2023-02-04T05:27:59;8.00;;;6.38;;
35330;SDS011;21441;52.190;20.910;2023-02-04T05:30:26;9.63;;;6.47;;
35330;SDS011;21441;52.190;20.910;2023-02-04T05:32:55;8.35;;;6.57;;
35330;SDS011;21441;52.190;20.910;2023-02-04T05:35:23;9.43;;;6.30;;
35330;SDS011;21441;52.190;20.910;2023-02-04T05:37:50;10.43;;;6.28;;
35330;SDS011;21441;52.190;20.910;2023-02-04T05:40:17;9.70;;;5.88;;
35330;SDS011;21441;52.190;20.910;2023-02-04T05:42:45;9.23;;;6.15;;
35330;SDS011;21441;52.190;20.910;2023-02-04T05:45:12;8.82;;;5.90;;
35330;SDS011;21441;52.190;20.910;2023-02-04T05:47:41;7.65;;;5.88;;
35330;SDS011;21441;52.190;20.910;2023-02-04T05:50:10;6.93;;;5.45;;
35330;SDS011;21441;52.190;20.910;2023-02-04T05:52:38;7.43;;;5.63;;
35330;SDS011;21441;52.190;20.910;2023-02-04T05:55:06;8.60;;;5.43;;
35330;SDS011;21441;52.190;20.910;2023-02-04T05:57:34;7.93;;;5.45;;
35330;SDS011;21441;52.190;20.910;2023-02-04T06:00:01;9.70;;;5.78;;
35330;SDS011;21441;52.190;20.910;2023-02-04T06:02:29;9.63;;;5.53;;
35330;SDS011;21441;52.190;20.910;2023-02-04T06:04:56;8.45;;;5.82;;
35330;SDS011;21441;52.190;20.910;2023-02-04T06:07:25;8.75;;;6.22;;
35330;SDS011;21441;52.190;20.910;2023-02-04T06:09:53;8.80;;;6.00;;
35330;SDS011;21441;52.190;20.910;2023-02-04T06:12:20;7.93;;;5.32;;
35330;SDS011;21441;52.190;20.910;2023-02-04T06:14:47;8.83;;;5.57;;
35330;SDS011;21441;52.190;20.910;2023-02-04T06:17:15;7.88;;;5.78;;
35330;SDS011;21441;52.190;20.910;2023-02-04T06:19:42;8.63;;;5.85;;
35330;SDS011;21441;52.190;20.910;2023-02-04T06:22:10;7.95;;;5.57;;
35330;SDS011;21441;52.190;20.910;2023-02-04T06:24:38;10.63;;;6.35;;
35330;SDS011;21441;52.190;20.910;2023-02-04T06:27:06;10.05;;;5.93;;
35330;SDS011;21441;52.190;20.910;2023-02-04T06:29:33;12.65;;;6.45;;
35330;SDS011;21441;52.190;20.910;2023-02-04T06:32:01;9.02;;;6.63;;
35330;SDS011;21441;52.190;20.910;2023-02-04T06:34:28;8.00;;;5.73;;
35330;SDS011;21441;52.190;20.910;2023-02-04T06:36:56;7.82;;;5.93;;
35330;SDS011;21441;52.190;20.910;2023-02-04T06:39:23;8.85;;;6.20;;
35330;SDS011;21441;52.190;20.910;2023-02-04T06:41:52;10.90;;;6.60;;
35330;SDS011;21441;52.190;20.910;2023-02-04T06:44:19;10.48;;;6.10;;
35330;SDS011;21441;52.190;20.910;2023-02-04T06:46:47;11.80;;;6.68;;
35330;SDS011;21441;52.190;20.910;2023-02-04T06:49:14;9.27;;;6.25;;
35330;SDS011;21441;52.190;20.910;2023-02-04T06:51:41;8.75;;;6.30;;
35330;SDS011;21441;52.190;20.910;2023-02-04T06:54:09;9.55;;;6.28;;
35330;SDS011;21441;52.190;20.910;2023-02-04T06:56:36;7.65;;;5.75;;
35330;SDS011;21441;52.190;20.910;2023-02-04T06:59:05;8.68;;;6.30;;
35330;SDS011;21441;52.190;20.910;2023-02-04T07:01:33;8.13;;;5.90;;
35330;SDS011;21441;52.190;20.910;2023-02-04T07:04:00;9.63;;;6.10;;
35330;SDS011;21441;52.190;20.910;2023-02-04T07:06:28;8.65;;;5.93;;
35330;SDS011;21441;52.190;20.910;2023-02-04T07:08:55;9.95;;;6.22;;
35330;SDS011;21441;52.190;20.910;2023-02-04T07:11:23;8.68;;;6.20;;
35330;SDS011;21441;52.190;20.910;2023-02-04T07:13:50;6.73;;;5.90;;
35330;SDS011;21441;52.190;20.910;2023-02-04T07:16:19;8.75;;;5.60;;
35330;SDS011;21441;52.190;20.910;2023-02-04T07:18:46;8.20;;;5.15;;
35330;SDS011;21441;52.190;20.910;2023-02-04T07:21:14;8.03;;;5.07;;
35330;SDS011;21441;52.190;20.910;2023-02-04T07:23:41;8.30;;;4.75;;
35330;SDS011;21441;52.190;20.910;2023-02-04T07:26:09;6.22;;;4.57;;
35330;SDS011;21441;52.190;20.910;2023-02-04T07:28:36;6.30;;;4.03;;
35330;SDS011;21441;52.190;20.910;2023-02-04T07:31:05;6.70;;;4.38;;
35330;SDS011;21441;52.190;20.910;2023-02-04T07:33:34;6.03;;;3.97;;
35330;SDS011;21441;52.190;20.910;2023-02-04T07:36:02;5.90;;;4.00;;
35330;SDS011;21441;52.190;20.910;2023-02-04T07:38:29;4.93;;;3.50;;
35330;SDS011;21441;52.190;20.910;2023-02-04T07:40:57;4.90;;;3.72;;
35330;SDS011;21441;52.190;20.910;2023-02-04T07:43:24;6.20;;;3.80;;
35330;SDS011;21441;52.190;20.910;2023-02-04T07:45:51;5.75;;;3.60;;
35330;SDS011;21441;52.190;20.910;2023-02-04T07:48:18;5.43;;;3.60;;
35330;SDS011;21441;52.190;20.910;2023-02-04T07:50:47;5.38;;;3.30;;
35330;SDS011;21441;52.190;20.910;2023-02-04T07:53:15;5.00;;;3.50;;
35330;SDS011;21441;52.190;20.910;2023-02-04T07:55:42;4.55;;;3.25;;
35330;SDS011;21441;52.190;20.910;2023-02-04T07:58:09;5.38;;;3.30;;
35330;SDS011;21441;52.190;20.910;2023-02-04T08:00:37;6.18;;;4.57;;
35330;SDS011;21441;52.190;20.910;2023-02-04T08:03:04;4.75;;;2.80;;
35330;SDS011;21441;52.190;20.910;2023-02-04T08:05:32;5.05;;;3.22;;
35330;SDS011;21441;52.190;20.910;2023-02-04T08:08:00;4.72;;;2.70;;
35330;SDS011;21441;52.190;20.910;2023-02-04T08:10:28;6.10;;;3.00;;
35330;SDS011;21441;52.190;20.910;2023-02-04T08:12:55;4.25;;;2.85;;
35330;SDS011;21441;52.190;20.910;2023-02-04T08:15:23;4.97;;;2.92;;
35330;SDS011;21441;52.190;20.910;2023-02-04T08:17:50;4.20;;;2.63;;
35330;SDS011;21441;52.190;20.910;2023-02-04T08:20:18;5.57;;;2.97;;
35330;SDS011;21441;52.190;20.910;2023-02-04T08:22:45;4.70;;;2.90;;
35330;SDS011;21441;52.190;20.910;2023-02-04T08:25:14;4.05;;;2.65;;
35330;SDS011;21441;52.190;20.910;2023-02-04T08:27:41;4.78;;;3.03;;
35330;SDS011;21441;52.190;20.910;2023-02-04T08:30:09;4.72;;;2.65;;
35330;SDS011;21441;52.190;20.910;2023-02-04T08:32:37;3.85;;;2.47;;
35330;SDS011;21441;52.190;20.910;2023-02-04T08:35:05;4.60;;;2.65;;
35330;SDS011;21441;52.190;20.910;2023-02-04T08:37:34;4.97;;;2.60;;
35330;SDS011;21441;52.190;20.910;2023-02-04T08:40:01;3.72;;;2.60;;
35330;SDS011;21441;52.190;20.910;2023-02-04T08:42:30;3.83;;;2.70;;
35330;SDS011;21441;52.190;20.910;2023-02-04T08:44:59;4.88;;;2.75;;
35330;SDS011;21441;52.190;20.910;2023-02-04T08:47:26;7.27;;;2.73;;
35330;SDS011;21441;52.190;20.910;2023-02-04T08:49:54;3.58;;;2.10;;
35330;SDS011;21441;52.190;20.910;2023-02-04T08:52:22;3.75;;;2.13;;
35330;SDS011;21441;52.190;20.910;2023-02-04T08:54:50;3.20;;;2.13;;
35330;SDS011;21441;52.190;20.910;2023-02-04T08:57:17;3.97;;;2.10;;
35330;SDS011;21441;52.190;20.910;2023-02-04T08:59:46;3.72;;;2.10;;
35330;SDS011;21441;52.190;20.910;2023-02-04T09:02:13;2.50;;;1.90;;
35330;SDS011;21441;52.190;20.910;2023-02-04T09:04:41;3.72;;;2.13;;
35330;SDS011;21441;52.190;20.910;2023-02-04T09:07:08;3.63;;;2.10;;
35330;SDS011;21441;52.190;20.910;2023-02-04T09:09:35;3.95;;;2.25;;
35330;SDS011;21441;52.190;20.910;2023-02-04T09:12:03;2.90;;;1.90;;
35330;SDS011;21441;52.190;20.910;2023-02-04T09:14:30;3.58;;;1.90;;
35330;SDS011;21441;52.190;20.910;2023-02-04T09:16:59;2.83;;;1.67;;
35330;SDS011;21441;52.190;20.910;2023-02-04T09:19:26;3.85;;;2.10;;
35330;SDS011;21441;52.190;20.910;2023-02-04T09:21:54;2.40;;;1.60;;
35330;SDS011;21441;52.190;20.910;2023-02-04T09:24:21;3.33;;;1.67;;
35330;SDS011;21441;52.190;20.910;2023-02-04T09:26:49;3.28;;;1.77;;
35330;SDS011;21441;52.190;20.910;2023-02-04T09:29:16;3.03;;;1.60;;
35330;SDS011;21441;52.190;20.910;2023-02-04T09:31:44;2.72;;;1.60;;
35330;SDS011;21441;52.190;20.910;2023-02-04T09:34:13;2.97;;;1.80;;
35330;SDS011;21441;52.190;20.910;2023-02-04T09:36:40;2.63;;;1.77;;
35330;SDS011;21441;52.190;20.910;2023-02-04T09:39:07;2.53;;;1.60;;
35330;SDS011;21441;52.190;20.910;2023-02-04T09:41:35;3.22;;;1.70;;
35330;SDS011;21441;52.190;20.910;2023-02-04T09:44:06;2.13;;;1.38;;
35330;SDS011;21441;52.190;20.910;2023-02-04T09:46:36;2.67;;;1.83;;
35330;SDS011;21441;52.190;20.910;2023-02-04T09:49:04;2.47;;;1.63;;
35330;SDS011;21441;52.190;20.910;2023-02-04T09:51:33;3.10;;;1.60;;
35330;SDS011;21441;52.190;20.910;2023-02-04T09:54:03;2.67;;;1.60;;
35330;SDS011;21441;52.190;20.910;2023-02-04T09:56:34;3.25;;;1.77;;
35330;SDS011;21441;52.190;20.910;2023-02-04T09:59:02;3.50;;;2.10;;
35330;SDS011;21441;52.190;20.910;2023-02-04T10:01:30;3.10;;;2.25;;
35330;SDS011;21441;52.190;20.910;2023-02-04T10:03:59;2.20;;;1.60;;
35330;SDS011;21441;52.190;20.910;2023-02-04T10:06:27;3.60;;;1.80;;
35330;SDS011;21441;52.190;20.910;2023-02-04T10:08:56;2.53;;;1.55;;
35330;SDS011;21441;52.190;20.910;2023-02-04T10:11:23;2.42;;;1.90;;
35330;SDS011;21441;52.190;20.910;2023-02-04T10:13:53;3.17;;;2.25;;
35330;SDS011;21441;52.190;20.910;2023-02-04T10:16:22;3.30;;;2.17;;
35330;SDS011;21441;52.190;20.910;2023-02-04T10:18:55;3.22;;;2.35;;
35330;SDS011;21441;52.190;20.910;2023-02-04T10:21:26;5.03;;;2.28;;
35330;SDS011;21441;52.190;20.910;2023-02-04T10:23:56;3.90;;;2.30;;
35330;SDS011;21441;52.190;20.910;2023-02-04T10:26:25;3.67;;;2.55;;
35330;SDS011;21441;52.190;20.910;2023-02-04T10:28:58;2.90;;;2.35;;
35330;SDS011;21441;52.190;20.910;2023-02-04T10:31:33;4.40;;;2.53;;
35330;SDS011;21441;52.190;20.910;2023-02-04T10:34:03;4.35;;;2.55;;
35330;SDS011;21441;52.190;20.910;2023-02-04T10:36:32;3.83;;;2.30;;
35330;SDS011;21441;52.190;20.910;2023-02-04T10:39:02;3.75;;;2.65;;
35330;SDS011;21441;52.190;20.910;2023-02-04T10:41:30;4.80;;;3.17;;
35330;SDS011;21441;52.190;20.910;2023-02-04T10:44:04;5.88;;;3.67;;
35330;SDS011;21441;52.190;20.910;2023-02-04T10:46:33;5.75;;;3.50;;
35330;SDS011;21441;52.190;20.910;2023-02-04T10:49:02;5.43;;;3.60;;
35330;SDS011;21441;52.190;20.910;2023-02-04T10:51:30;5.35;;;3.50;;
35330;SDS011;21441;52.190;20.910;2023-02-04T10:53:58;5.95;;;3.22;;
35330;SDS011;21441;52.190;20.910;2023-02-04T10:56:45;4.38;;;2.65;;
35330;SDS011;21441;52.190;20.910;2023-02-04T10:59:22;4.80;;;3.17;;
35330;SDS011;21441;52.190;20.910;2023-02-04T11:01:52;6.80;;;3.78;;
35330;SDS011;21441;52.190;20.910;2023-02-04T11:04:22;5.63;;;3.72;;
35330;SDS011;21441;52.190;20.910;2023-02-04T11:06:50;6.82;;;3.80;;
35330;SDS011;21441;52.190;20.910;2023-02-04T11:09:19;7.15;;;4.43;;
35330;SDS011;21441;52.190;20.910;2023-02-04T11:11:48;5.00;;;3.80;;
35330;SDS011;21441;52.190;20.910;2023-02-04T11:14:25;9.10;;;4.07;;
35330;SDS011;21441;52.190;20.910;2023-02-04T11:16:54;6.28;;;3.92;;
35330;SDS011;21441;52.190;20.910;2023-02-04T11:19:33;4.93;;;3.80;;
35330;SDS011;21441;52.190;20.910;2023-02-04T11:22:06;6.28;;;3.80;;
35330;SDS011;21441;52.190;20.910;2023-02-04T11:24:47;5.53;;;3.30;;
35330;SDS011;21441;52.190;20.910;2023-02-04T11:27:21;6.30;;;3.70;;
35330;SDS011;21441;52.190;20.910;2023-02-04T11:29:51;6.35;;;3.95;;
35330;SDS011;21441;52.190;20.910;2023-02-04T11:32:30;5.43;;;3.80;;
35330;SDS011;21441;52.190;20.910;2023-02-04T11:35:19;5.05;;;3.35;;
35330;SDS011;21441;52.190;20.910;2023-02-04T11:37:49;5.75;;;3.70;;
35330;SDS011;21441;52.190;20.910;2023-02-04T11:40:22;5.75;;;3.30;;
35330;SDS011;21441;52.190;20.910;2023-02-04T11:42:57;6.27;;;3.67;;
35330;SDS011;21441;52.190;20.910;2023-02-04T11:45:28;6.03;;;3.60;;
35330;SDS011;21441;52.190;20.910;2023-02-04T11:47:58;7.53;;;3.95;;
35330;SDS011;21441;52.190;20.910;2023-02-04T11:50:28;5.70;;;3.70;;
35330;SDS011;21441;52.190;20.910;2023-02-04T11:52:57;6.17;;;3.83;;
35330;SDS011;21441;52.190;20.910;2023-02-04T11:55:27;7.20;;;4.07;;
35330;SDS011;21441;52.190;20.910;2023-02-04T11:57:56;7.22;;;4.38;;
35330;SDS011;21441;52.190;20.910;2023-02-04T12:00:24;6.18;;;4.00;;
35330;SDS011;21441;52.190;20.910;2023-02-04T12:02:55;6.75;;;3.80;;
35330;SDS011;21441;52.190;20.910;2023-02-04T12:05:34;6.05;;;3.55;;
35330;SDS011;21441;52.190;20.910;2023-02-04T12:08:09;5.60;;;3.78;;
35330;SDS011;21441;52.190;20.910;2023-02-04T12:10:37;6.18;;;4.00;;
35330;SDS011;21441;52.190;20.910;2023-02-04T12:13:17;6.35;;;3.80;;
35330;SDS011;21441;52.190;20.910;2023-02-04T12:15:51;5.10;;;3.65;;
35330;SDS011;21441;52.190;20.910;2023-02-04T12:18:21;5.85;;;4.00;;
35330;SDS011;21441;52.190;20.910;2023-02-04T12:20:48;5.88;;;3.90;;
35330;SDS011;21441;52.190;20.910;2023-02-04T12:23:16;6.43;;;4.47;;
35330;SDS011;21441;52.190;20.910;2023-02-04T12:25:43;7.60;;;5.13;;
35330;SDS011;21441;52.190;20.910;2023-02-04T12:28:12;7.18;;;5.30;;
35330;SDS011;21441;52.190;20.910;2023-02-04T12:30:40;7.20;;;4.80;;
35330;SDS011;21441;52.190;20.910;2023-02-04T12:33:07;7.43;;;4.90;;
35330;SDS011;21441;52.190;20.910;2023-02-04T12:35:35;7.47;;;5.00;;
35330;SDS011;21441;52.190;20.910;2023-02-04T12:38:02;8.13;;;5.40;;
35330;SDS011;21441;52.190;20.910;2023-02-04T12:40:30;7.40;;;4.90;;
35330;SDS011;21441;52.190;20.910;2023-02-04T12:42:57;9.55;;;5.60;;
35330;SDS011;21441;52.190;20.910;2023-02-04T12:45:26;8.97;;;5.53;;
35330;SDS011;21441;52.190;20.910;2023-02-04T12:47:53;10.70;;;5.65;;
35330;SDS011;21441;52.190;20.910;2023-02-04T12:50:21;8.38;;;5.68;;
35330;SDS011;21441;52.190;20.910;2023-02-04T12:52:49;9.48;;;5.65;;
35330;SDS011;21441;52.190;20.910;2023-02-04T12:55:17;9.63;;;5.65;;
35330;SDS011;21441;52.190;20.910;2023-02-04T12:57:45;6.17;;;4.60;;
35330;SDS011;21441;52.190;20.910;2023-02-04T13:00:13;6.95;;;5.03;;
35330;SDS011;21441;52.190;20.910;2023-02-04T13:02:43;8.77;;;5.10;;
35330;SDS011;21441;52.190;20.910;2023-02-04T13:05:12;7.40;;;4.82;;
35330;SDS011;21441;52.190;20.910;2023-02-04T13:07:39;7.63;;;5.30;;
35330;SDS011;21441;52.190;20.910;2023-02-04T13:10:08;7.60;;;5.45;;
35330;SDS011;21441;52.190;20.910;2023-02-04T13:12:36;7.90;;;5.60;;
35330;SDS011;21441;52.190;20.910;2023-02-04T13:15:04;7.60;;;4.80;;
35330;SDS011;21441;52.190;20.910;2023-02-04T13:17:32;7.18;;;4.75;;
35330;SDS011;21441;52.190;20.910;2023-02-04T13:20:01;7.83;;;4.77;;
35330;SDS011;21441;52.190;20.910;2023-02-04T13:22:28;9.68;;;5.70;;
35330;SDS011;21441;52.190;20.910;2023-02-04T13:24:56;7.22;;;5.07;;
35330;SDS011;21441;52.190;20.910;2023-02-04T13:27:23;7.47;;;5.03;;
35330;SDS011;21441;52.190;20.910;2023-02-04T13:29:52;7.38;;;4.68;;
35330;SDS011;21441;52.190;20.910;2023-02-04T13:32:19;6.78;;;4.80;;
35330;SDS011;21441;52.190;20.910;2023-02-04T13:34:47;10.10;;;5.65;;
35330;SDS011;21441;52.190;20.910;2023-02-04T13:37:16;7.70;;;5.05;;
35330;SDS011;21441;52.190;20.910;2023-02-04T13:39:43;9.40;;;4.70;;
35330;SDS011;21441;52.190;20.910;2023-02-04T13:42:10;7.82;;;4.82;;
35330;SDS011;21441;52.190;20.910;2023-02-04T13:44:38;6.53;;;4.50;;
35330;SDS011;21441;52.190;20.910;2023-02-04T13:47:05;6.55;;;4.40;;
35330;SDS011;21441;52.190;20.910;2023-02-04T13:49:33;6.22;;;4.15;;
35330;SDS011;21441;52.190;20.910;2023-02-04T13:52:00;6.80;;;3.90;;
35330;SDS011;21441;52.190;20.910;2023-02-04T13:54:29;5.53;;;3.40;;
35330;SDS011;21441;52.190;20.910;2023-02-04T13:56:56;5.07;;;3.67;;
35330;SDS011;21441;52.190;20.910;2023-02-04T13:59:24;6.18;;;3.50;;
35330;SDS011;21441;52.190;20.910;2023-02-04T14:01:51;4.87;;;3.10;;
35330;SDS011;21441;52.190;20.910;2023-02-04T14:04:19;5.78;;;3.00;;
35330;SDS011;21441;52.190;20.910;2023-02-04T14:06:46;5.07;;;2.80;;
35330;SDS011;21441;52.190;20.910;2023-02-04T14:09:13;5.63;;;2.60;;
35330;SDS011;21441;52.190;20.910;2023-02-04T14:11:42;3.80;;;2.58;;
35330;SDS011;21441;52.190;20.910;2023-02-04T14:14:09;5.05;;;2.92;;
35330;SDS011;21441;52.190;20.910;2023-02-04T14:16:37;4.05;;;2.70;;
35330;SDS011;21441;52.190;20.910;2023-02-04T14:19:04;4.15;;;2.90;;
35330;SDS011;21441;52.190;20.910;2023-02-04T14:21:32;4.50;;;2.70;;
35330;SDS011;21441;52.190;20.910;2023-02-04T14:24:00;4.32;;;2.60;;
35330;SDS011;21441;52.190;20.910;2023-02-04T14:26:27;3.72;;;2.63;;
35330;SDS011;21441;52.190;20.910;2023-02-04T14:28:56;4.95;;;2.63;;
35330;SDS011;21441;52.190;20.910;2023-02-04T14:31:23;3.78;;;2.85;;
35330;SDS011;21441;52.190;20.910;2023-02-04T14:33:51;4.38;;;2.72;;
35330;SDS011;21441;52.190;20.910;2023-02-04T14:36:18;5.25;;;2.90;;